createdAt,value
2018-06-03T00:00:39.544Z,91.56
2018-06-03T00:01:39.442Z,91.46
2018-06-03T00:02:39.350Z,92.13
2018-06-03T00:03:39.260Z,91.94
2018-06-03T00:04:39.169Z,91.94
2018-06-03T00:05:39.078Z,91.75
2018-06-03T00:06:38.988Z,91.85
2018-06-03T00:07:38.910Z,92.04
2018-06-03T00:08:38.806Z,92.13
2018-06-03T00:09:38.703Z,92.13
2018-06-03T00:10:38.611Z,92.23
2018-06-03T00:11:38.524Z,92.81
2018-06-03T00:12:38.430Z,92.81
2018-06-03T00:13:38.340Z,92.52
2018-06-03T00:14:38.254Z,92.81
2018-06-03T00:15:38.145Z,92.43
2018-06-03T00:16:38.055Z,92.71
2018-06-03T00:17:37.963Z,92.71
2018-06-03T00:18:37.873Z,92.71
2018-06-03T00:19:37.781Z,92.81
2018-06-03T00:20:37.692Z,92.76
2018-06-03T00:21:37.592Z,93.48
2018-06-03T00:22:37.498Z,93.58
2018-06-03T00:23:37.406Z,93.77
2018-06-03T00:24:37.316Z,93.48
2018-06-03T00:25:37.225Z,93.68
2018-06-03T00:26:37.133Z,93.68
2018-06-03T00:27:37.032Z,93.82
2018-06-03T00:28:36.940Z,93.53
2018-06-03T00:29:36.851Z,93.53
2018-06-03T00:30:36.759Z,93.53
2018-06-03T00:31:36.667Z,94.01
2018-06-03T00:32:36.577Z,94.21
2018-06-03T00:33:36.474Z,94.11
2018-06-03T00:34:36.382Z,94.01
2018-06-03T00:35:36.293Z,94.01
2018-06-03T00:36:36.200Z,93.82
2018-06-03T00:37:36.110Z,94.21
2018-06-03T00:38:36.019Z,94.11
2018-06-03T00:39:35.917Z,94.49
2018-06-03T00:40:35.825Z,94.11
2018-06-03T00:41:35.734Z,94.98
2018-06-03T00:42:35.644Z,93.91
2018-06-03T00:43:35.552Z,94.40
2018-06-03T00:44:35.468Z,94.88
2018-06-03T00:45:35.359Z,94.11
2018-06-03T00:46:35.269Z,94.92
2018-06-03T00:47:35.180Z,94.54
2018-06-03T00:48:35.086Z,94.45
2018-06-03T00:49:34.998Z,94.45
2018-06-03T00:50:34.904Z,94.68
2018-06-03T00:51:34.807Z,94.73
2018-06-03T00:52:34.712Z,94.64
2018-06-03T00:53:34.619Z,94.54
2018-06-03T00:54:34.522Z,94.64
2018-06-03T00:55:34.439Z,94.73
2018-06-03T00:56:34.347Z,94.64
2018-06-03T00:57:34.244Z,94.64
2018-06-03T00:58:34.155Z,94.45
2018-06-03T00:59:34.062Z,94.64
2018-06-03T01:00:33.977Z,94.64
2018-06-03T01:01:33.881Z,94.64
2018-06-03T01:02:33.789Z,94.73
2018-06-03T01:03:33.687Z,94.73
2018-06-03T01:04:33.597Z,94.64
2018-06-03T01:05:33.505Z,94.54
2018-06-03T01:06:33.414Z,94.45
2018-06-03T01:07:33.322Z,94.64
2018-06-03T01:08:33.232Z,94.64
2018-06-03T01:09:33.129Z,94.35
2018-06-03T01:10:33.038Z,94.35
2018-06-03T01:11:32.947Z,94.35
2018-06-03T01:12:32.856Z,94.49
2018-06-03T01:13:32.769Z,94.45
2018-06-03T01:14:32.677Z,94.64
2018-06-03T01:15:32.576Z,94.45
2018-06-03T01:16:32.485Z,94.35
2018-06-03T01:17:32.389Z,94.45
2018-06-03T01:18:32.300Z,94.45
2018-06-03T01:19:32.208Z,94.64
2018-06-03T01:20:32.118Z,94.35
2018-06-03T01:21:32.015Z,94.40
2018-06-03T01:22:31.941Z,94.54
2018-06-03T01:23:31.833Z,94.45
2018-06-03T01:24:31.991Z,94.40
2018-06-03T01:25:31.650Z,94.54
2018-06-03T01:26:31.573Z,94.73
2018-06-03T01:27:31.472Z,94.64
2018-06-03T01:28:31.367Z,94.35
2018-06-03T01:29:31.274Z,94.64
2018-06-03T01:30:31.185Z,94.49
2018-06-03T01:31:31.093Z,94.54
2018-06-03T01:32:31.003Z,94.83
2018-06-03T01:33:30.912Z,94.73
2018-06-03T01:34:30.808Z,94.83
2018-06-03T01:35:30.718Z,94.83
2018-06-03T01:36:30.626Z,94.73
2018-06-03T01:37:30.537Z,94.73
2018-06-03T01:38:30.445Z,94.83
2018-06-03T01:39:30.357Z,94.73
2018-06-03T01:40:30.252Z,94.73
2018-06-03T01:41:30.160Z,94.54
2018-06-03T01:42:30.071Z,94.83
2018-06-03T01:43:29.979Z,94.73
2018-06-03T01:44:29.888Z,94.35
2018-06-03T01:45:29.796Z,94.54
2018-06-03T01:46:29.699Z,94.73
2018-06-03T01:47:29.604Z,94.83
2018-06-03T01:48:29.526Z,95.02
2018-06-03T01:49:29.421Z,94.83
2018-06-03T01:50:29.330Z,94.83
2018-06-03T01:51:29.240Z,94.73
2018-06-03T01:52:29.138Z,94.83
2018-06-03T01:53:29.049Z,94.73
2018-06-03T01:54:28.958Z,94.73
2018-06-03T01:55:28.865Z,94.73
2018-06-03T01:56:28.774Z,94.73
2018-06-03T01:57:28.681Z,94.73
2018-06-03T01:58:28.580Z,94.64
2018-06-03T01:59:28.738Z,94.73
2018-06-03T02:00:28.398Z,94.64
2018-06-03T02:01:28.331Z,94.64
2018-06-03T02:02:28.216Z,94.54
2018-06-03T02:03:28.125Z,94.45
2018-06-03T02:04:28.035Z,94.54
2018-06-03T02:05:27.931Z,94.64
2018-06-03T02:06:27.841Z,94.73
2018-06-03T02:07:27.749Z,94.64
2018-06-03T02:08:27.661Z,94.64
2018-06-03T02:09:27.567Z,94.45
2018-06-03T02:10:27.479Z,94.64
2018-06-03T02:11:27.376Z,94.35
2018-06-03T02:12:27.283Z,94.25
2018-06-03T02:13:27.195Z,94.64
2018-06-03T02:14:27.102Z,94.73
2018-06-03T02:15:27.011Z,94.83
2018-06-03T02:16:26.921Z,94.54
2018-06-03T02:17:26.819Z,94.45
2018-06-03T02:18:26.726Z,94.35
2018-06-03T02:19:26.884Z,94.73
2018-06-03T02:20:26.545Z,94.54
2018-06-03T02:21:26.453Z,94.45
2018-06-03T02:22:26.363Z,94.64
2018-06-03T02:23:26.270Z,94.73
2018-06-03T02:24:26.167Z,94.54
2018-06-03T02:25:26.078Z,94.73
2018-06-03T02:26:25.987Z,94.35
2018-06-03T02:27:25.896Z,94.45
2018-06-03T02:28:25.804Z,94.54
2018-06-03T02:29:25.715Z,94.35
2018-06-03T02:30:25.612Z,94.64
2018-06-03T02:31:25.520Z,94.45
2018-06-03T02:32:25.429Z,94.73
2018-06-03T02:33:25.338Z,94.64
2018-06-03T02:34:25.249Z,94.54
2018-06-03T02:35:25.157Z,94.54
2018-06-03T02:36:25.054Z,94.64
2018-06-03T02:37:24.965Z,94.40
2018-06-03T02:38:24.872Z,94.45
2018-06-03T02:39:24.782Z,94.54
2018-06-03T02:40:24.692Z,94.35
2018-06-03T02:41:24.600Z,94.45
2018-06-03T02:42:24.510Z,94.35
2018-06-03T02:43:24.407Z,94.25
2018-06-03T02:44:24.315Z,94.54
2018-06-03T02:45:24.224Z,94.54
2018-06-03T02:46:24.133Z,94.54
2018-06-03T02:47:24.042Z,94.59
2018-06-03T02:48:23.940Z,94.25
2018-06-03T02:49:23.849Z,94.64
2018-06-03T02:50:23.756Z,94.54
2018-06-03T02:51:23.667Z,94.54
2018-06-03T02:52:23.575Z,94.49
2018-06-03T02:53:23.485Z,94.49
2018-06-03T02:54:23.394Z,94.64
2018-06-03T02:55:23.291Z,94.73
2018-06-03T02:56:23.200Z,94.83
2018-06-03T02:57:23.126Z,94.54
2018-06-03T02:58:23.018Z,94.49
2018-06-03T02:59:22.927Z,94.92
2018-06-03T03:00:22.836Z,94.73
2018-06-03T03:01:22.733Z,94.35
2018-06-03T03:02:22.641Z,94.45
2018-06-03T03:03:22.552Z,94.73
2018-06-03T03:04:22.461Z,94.25
2018-06-03T03:05:22.370Z,94.59
2018-06-03T03:06:22.278Z,94.40
2018-06-03T03:07:22.176Z,94.73
2018-06-03T03:08:22.092Z,94.78
2018-06-03T03:09:21.993Z,94.40
2018-06-03T03:10:21.903Z,94.21
2018-06-03T03:11:21.811Z,94.45
2018-06-03T03:12:21.722Z,94.59
2018-06-03T03:13:21.619Z,94.40
2018-06-03T03:14:21.527Z,94.49
2018-06-03T03:15:21.436Z,94.45
2018-06-03T03:16:21.347Z,94.49
2018-06-03T03:17:21.254Z,94.11
2018-06-03T03:18:21.163Z,94.64
2018-06-03T03:19:21.073Z,94.40
2018-06-03T03:20:20.969Z,94.54
2018-06-03T03:21:20.879Z,94.15
2018-06-03T03:22:20.788Z,94.45
2018-06-03T03:23:20.697Z,94.45
2018-06-03T03:24:20.609Z,94.49
2018-06-03T03:25:20.516Z,94.45
2018-06-03T03:26:20.426Z,94.35
2018-06-03T03:27:20.322Z,94.21
2018-06-03T03:28:20.231Z,94.45
2018-06-03T03:29:20.141Z,94.45
2018-06-03T03:30:20.062Z,94.45
2018-06-03T03:31:19.959Z,94.35
2018-06-03T03:32:19.866Z,94.35
2018-06-03T03:33:19.764Z,94.64
2018-06-03T03:34:19.673Z,94.59
2018-06-03T03:35:19.582Z,94.06
2018-06-03T03:36:19.530Z,94.45
2018-06-03T03:37:19.401Z,94.54
2018-06-03T03:38:19.298Z,94.64
2018-06-03T03:39:19.223Z,94.64
2018-06-03T03:40:19.116Z,94.54
2018-06-03T03:41:19.029Z,94.64
2018-06-03T03:42:18.935Z,94.45
2018-06-03T03:43:18.850Z,94.54
2018-06-03T03:44:18.745Z,94.64
2018-06-03T03:45:18.649Z,94.78
2018-06-03T03:46:18.559Z,94.59
2018-06-03T03:47:18.468Z,94.73
2018-06-03T03:48:18.378Z,94.40
2018-06-03T03:49:18.286Z,94.45
2018-06-03T03:50:18.196Z,94.73
2018-06-03T03:51:18.093Z,94.54
2018-06-03T03:52:18.014Z,94.64
2018-06-03T03:53:17.911Z,94.64
2018-06-03T03:54:17.819Z,94.35
2018-06-03T03:55:17.729Z,94.73
2018-06-03T03:56:17.643Z,94.78
2018-06-03T03:57:17.548Z,94.64
2018-06-03T03:58:17.444Z,94.54
2018-06-03T03:59:17.353Z,94.73
2018-06-03T04:00:17.263Z,94.45
2018-06-03T04:01:17.173Z,94.64
2018-06-03T04:02:17.081Z,94.45
2018-06-03T04:03:16.989Z,94.45
2018-06-03T04:04:16.886Z,94.54
2018-06-03T04:05:16.798Z,94.35
2018-06-03T04:06:16.704Z,94.35
2018-06-03T04:07:16.614Z,94.15
2018-06-03T04:08:16.523Z,94.54
2018-06-03T04:09:16.433Z,94.45
2018-06-03T04:10:16.342Z,94.64
2018-06-03T04:11:16.273Z,94.35
2018-06-03T04:12:16.152Z,94.64
2018-06-03T04:13:16.090Z,94.35
2018-06-03T04:14:15.966Z,94.64
2018-06-03T04:15:15.875Z,94.64
2018-06-03T04:16:15.784Z,94.25
2018-06-03T04:17:15.686Z,94.35
2018-06-03T04:18:15.594Z,94.25
2018-06-03T04:19:15.801Z,94.35
2018-06-03T04:20:15.408Z,94.15
2018-06-03T04:21:15.331Z,94.45
2018-06-03T04:22:15.226Z,94.49
2018-06-03T04:23:15.135Z,94.64
2018-06-03T04:24:15.036Z,94.25
2018-06-03T04:25:14.941Z,94.64
2018-06-03T04:26:14.851Z,94.54
2018-06-03T04:27:14.760Z,94.40
2018-06-03T04:28:14.674Z,94.30
2018-06-03T04:29:14.828Z,94.35
2018-06-03T04:30:14.476Z,94.21
2018-06-03T04:31:14.384Z,94.45
2018-06-03T04:32:14.294Z,94.30
2018-06-03T04:33:14.205Z,94.30
2018-06-03T04:34:14.112Z,94.40
2018-06-03T04:35:14.021Z,94.30
2018-06-03T04:36:13.933Z,94.45
2018-06-03T04:37:13.843Z,94.11
2018-06-03T04:38:13.737Z,94.35
2018-06-03T04:39:13.895Z,94.11
2018-06-03T04:40:13.556Z,94.45
2018-06-03T04:41:13.464Z,94.45
2018-06-03T04:42:13.373Z,94.35
2018-06-03T04:43:13.271Z,94.11
2018-06-03T04:44:13.179Z,94.15
2018-06-03T04:45:13.089Z,94.49
2018-06-03T04:46:12.997Z,94.21
2018-06-03T04:47:12.907Z,94.59
2018-06-03T04:48:12.815Z,94.30
2018-06-03T04:49:12.718Z,94.68
2018-06-03T04:50:12.625Z,94.64
2018-06-03T04:51:12.530Z,94.92
2018-06-03T04:52:12.440Z,94.83
2018-06-03T04:53:12.354Z,94.83
2018-06-03T04:54:12.258Z,94.54
2018-06-03T04:55:12.168Z,94.83
2018-06-03T04:56:12.068Z,94.73
2018-06-03T04:57:11.974Z,94.83
2018-06-03T04:58:11.882Z,94.83
2018-06-03T04:59:11.792Z,94.64
2018-06-03T05:00:11.701Z,95.02
2018-06-03T05:01:11.611Z,94.83
2018-06-03T05:02:11.518Z,94.64
2018-06-03T05:03:11.417Z,94.83
2018-06-03T05:04:11.328Z,94.73
2018-06-03T05:05:11.237Z,94.49
2018-06-03T05:06:11.144Z,94.49
2018-06-03T05:07:11.052Z,94.98
2018-06-03T05:08:10.962Z,94.98
2018-06-03T05:09:10.859Z,94.59
2018-06-03T05:10:10.767Z,94.59
2018-06-03T05:11:10.677Z,94.54
2018-06-03T05:12:10.585Z,94.73
2018-06-03T05:13:10.495Z,94.83
2018-06-03T05:14:10.404Z,94.54
2018-06-03T05:15:10.315Z,94.73
2018-06-03T05:16:10.211Z,94.54
2018-06-03T05:17:10.122Z,94.83
2018-06-03T05:18:10.031Z,94.64
2018-06-03T05:19:09.938Z,94.92
2018-06-03T05:20:09.852Z,94.83
2018-06-03T05:21:09.756Z,94.83
2018-06-03T05:22:09.655Z,94.92
2018-06-03T05:23:09.565Z,94.35
2018-06-03T05:24:09.721Z,94.54
2018-06-03T05:25:09.381Z,94.35
2018-06-03T05:26:09.290Z,94.45
2018-06-03T05:27:09.200Z,94.45
2018-06-03T05:28:09.107Z,94.45
2018-06-03T05:29:09.007Z,94.45
2018-06-03T05:30:08.917Z,94.35
2018-06-03T05:31:08.823Z,94.45
2018-06-03T05:32:08.738Z,94.45
2018-06-03T05:33:08.647Z,94.54
2018-06-03T05:34:08.552Z,94.25
2018-06-03T05:35:08.460Z,93.87
2018-06-03T05:36:08.370Z,94.64
2018-06-03T05:37:08.267Z,94.54
2018-06-03T05:38:08.175Z,94.73
2018-06-03T05:39:08.085Z,94.54
2018-06-03T05:40:07.993Z,94.45
2018-06-03T05:41:07.902Z,94.64
2018-06-03T05:42:07.811Z,94.45
2018-06-03T05:43:07.722Z,94.35
2018-06-03T05:44:07.930Z,94.45
2018-06-03T05:45:07.527Z,94.40
2018-06-03T05:46:07.436Z,94.40
2018-06-03T05:47:07.345Z,94.40
2018-06-03T05:48:07.256Z,94.30
2018-06-03T05:49:07.163Z,94.40
2018-06-03T05:50:07.073Z,94.30
2018-06-03T05:51:06.981Z,94.30
2018-06-03T05:52:06.879Z,94.59
2018-06-03T05:53:06.788Z,93.72
2018-06-03T05:54:06.696Z,93.82
2018-06-03T05:55:06.606Z,94.59
2018-06-03T05:56:06.515Z,94.01
2018-06-03T05:57:06.425Z,94.49
2018-06-03T05:58:06.333Z,94.01
2018-06-03T05:59:06.247Z,93.68
2018-06-03T06:00:06.151Z,93.96
2018-06-03T06:01:06.056Z,93.96
2018-06-03T06:02:05.960Z,93.77
2018-06-03T06:03:05.867Z,93.77
2018-06-03T06:04:06.033Z,93.87
2018-06-03T06:05:05.691Z,93.96
2018-06-03T06:06:05.600Z,93.87
2018-06-03T06:07:05.504Z,93.77
2018-06-03T06:08:05.414Z,93.77
2018-06-03T06:09:05.345Z,93.96
2018-06-03T06:10:05.222Z,93.68
2018-06-03T06:11:05.133Z,94.15
2018-06-03T06:12:05.037Z,94.25
2018-06-03T06:13:04.947Z,94.64
2018-06-03T06:14:04.855Z,94.49
2018-06-03T06:15:04.766Z,94.40
2018-06-03T06:16:04.674Z,94.59
2018-06-03T06:17:04.572Z,94.10
2018-06-03T06:18:04.480Z,94.40
2018-06-03T06:19:04.389Z,94.30
2018-06-03T06:20:04.319Z,94.30
2018-06-03T06:21:04.208Z,94.59
2018-06-03T06:22:04.117Z,94.49
2018-06-03T06:23:04.026Z,94.40
2018-06-03T06:24:03.936Z,93.62
2018-06-03T06:25:03.832Z,93.91
2018-06-03T06:26:03.743Z,93.43
2018-06-03T06:27:03.654Z,93.53
2018-06-03T06:28:03.561Z,93.62
2018-06-03T06:29:03.719Z,93.24
2018-06-03T06:30:03.374Z,94.10
2018-06-03T06:31:03.283Z,93.15
2018-06-03T06:32:03.193Z,93.43
2018-06-03T06:33:03.105Z,93.33
2018-06-03T06:34:03.000Z,93.15
2018-06-03T06:35:02.910Z,94.01
2018-06-03T06:36:02.819Z,93.33
2018-06-03T06:37:02.726Z,93.24
2018-06-03T06:38:02.636Z,93.72
2018-06-03T06:39:02.796Z,93.82
2018-06-03T06:40:02.455Z,93.43
2018-06-03T06:41:02.365Z,94.01
2018-06-03T06:42:02.275Z,93.72
2018-06-03T06:43:02.172Z,93.57
2018-06-03T06:44:02.081Z,93.33
2018-06-03T06:45:01.992Z,93.91
2018-06-03T06:46:01.903Z,93.67
2018-06-03T06:47:01.810Z,93.67
2018-06-03T06:48:01.719Z,93.48
2018-06-03T06:49:01.627Z,93.67
2018-06-03T06:50:01.551Z,93.57
2018-06-03T06:51:01.447Z,92.90
2018-06-03T06:52:01.344Z,93.29
2018-06-03T06:53:01.256Z,93.29
2018-06-03T06:54:01.163Z,93.09
2018-06-03T06:55:01.070Z,93.48
2018-06-03T06:56:00.981Z,93.09
2018-06-03T06:57:00.890Z,92.71
2018-06-03T06:58:00.800Z,93.19
2018-06-03T06:59:01.008Z,93.09
2018-06-03T07:00:00.619Z,93.19
2018-06-03T07:01:00.530Z,93.00
2018-06-03T07:02:00.437Z,92.85
2018-06-03T07:03:00.339Z,92.85
2018-06-03T07:04:00.256Z,92.47
2018-06-03T07:05:00.153Z,92.47
2018-06-03T07:06:00.062Z,92.76
2018-06-03T07:06:59.975Z,92.66
2018-06-03T07:07:59.881Z,92.85
2018-06-03T07:08:59.790Z,92.66
2018-06-03T07:09:59.699Z,92.66
2018-06-03T07:10:59.617Z,92.95
2018-06-03T07:11:59.519Z,92.66
2018-06-03T07:12:59.415Z,92.95
2018-06-03T07:13:59.325Z,92.52
2018-06-03T07:14:59.233Z,93.15
2018-06-03T07:15:59.144Z,92.57
2018-06-03T07:16:59.065Z,92.76
2018-06-03T07:17:58.963Z,93.05
2018-06-03T07:18:59.170Z,92.66
2018-06-03T07:19:58.786Z,92.95
2018-06-03T07:20:58.689Z,92.32
2018-06-03T07:21:58.599Z,92.71
2018-06-03T07:22:58.522Z,92.71
2018-06-03T07:23:58.407Z,92.66
2018-06-03T07:24:58.315Z,92.90
2018-06-03T07:25:58.223Z,92.85
2018-06-03T07:26:58.134Z,93.05
2018-06-03T07:27:58.042Z,93.15
2018-06-03T07:28:57.953Z,92.38
2018-06-03T07:29:57.861Z,92.38
2018-06-03T07:30:57.771Z,92.57
2018-06-03T07:31:57.680Z,92.47
2018-06-03T07:32:57.578Z,92.47
2018-06-03T07:33:57.486Z,92.66
2018-06-03T07:34:57.394Z,93.05
2018-06-03T07:35:57.311Z,93.43
2018-06-03T07:36:57.215Z,93.15
2018-06-03T07:37:57.123Z,92.57
2018-06-03T07:38:57.032Z,92.28
2018-06-03T07:39:56.944Z,92.66
2018-06-03T07:40:56.851Z,92.66
2018-06-03T07:41:56.761Z,92.76
2018-06-03T07:42:56.670Z,92.76
2018-06-03T07:43:56.883Z,93.53
2018-06-03T07:44:56.477Z,93.24
2018-06-03T07:45:56.384Z,93.05
2018-06-03T07:46:56.300Z,93.53
2018-06-03T07:47:56.205Z,93.43
2018-06-03T07:48:56.114Z,93.43
2018-06-03T07:49:56.022Z,93.24
2018-06-03T07:50:55.934Z,93.43
2018-06-03T07:51:55.842Z,93.62
2018-06-03T07:52:55.751Z,93.24
2018-06-03T07:53:55.661Z,93.24
2018-06-03T07:54:55.557Z,93.53
2018-06-03T07:55:55.464Z,93.72
2018-06-03T07:56:55.372Z,93.72
2018-06-03T07:57:55.281Z,93.82
2018-06-03T07:58:55.189Z,93.62
2018-06-03T07:59:55.098Z,93.72
2018-06-03T08:00:55.007Z,93.91
2018-06-03T08:01:54.918Z,94.20
2018-06-03T08:02:54.825Z,93.53
2018-06-03T08:03:54.977Z,93.53
2018-06-03T08:04:54.632Z,93.53
2018-06-03T08:05:54.580Z,93.53
2018-06-03T08:06:54.451Z,93.53
2018-06-03T08:07:54.360Z,93.72
2018-06-03T08:08:54.268Z,93.62
2018-06-03T08:09:54.176Z,93.33
2018-06-03T08:10:54.090Z,94.01
2018-06-03T08:11:53.995Z,94.40
2018-06-03T08:12:53.892Z,93.72
2018-06-03T08:13:53.800Z,93.62
2018-06-03T08:14:53.709Z,94.10
2018-06-03T08:15:53.620Z,93.91
2018-06-03T08:16:53.529Z,93.43
2018-06-03T08:17:53.439Z,93.68
2018-06-03T08:18:53.349Z,93.62
2018-06-03T08:19:53.257Z,93.82
2018-06-03T08:20:53.165Z,93.96
2018-06-03T08:21:53.063Z,94.06
2018-06-03T08:22:53.000Z,94.06
2018-06-03T08:23:53.131Z,93.77
2018-06-03T08:24:52.791Z,93.77
2018-06-03T08:25:52.698Z,94.15
2018-06-03T08:26:52.608Z,94.15
2018-06-03T08:27:52.516Z,93.87
2018-06-03T08:28:52.427Z,94.15
2018-06-03T08:29:52.371Z,94.06
2018-06-03T08:30:52.233Z,94.25
2018-06-03T08:31:52.140Z,94.06
2018-06-03T08:32:52.048Z,94.06
2018-06-03T08:33:51.958Z,94.20
2018-06-03T08:34:51.865Z,94.40
2018-06-03T08:35:51.776Z,94.78
2018-06-03T08:36:51.685Z,94.59
2018-06-03T08:37:51.595Z,94.40
2018-06-03T08:38:51.502Z,94.92
2018-06-03T08:39:51.399Z,94.82
2018-06-03T08:40:51.308Z,94.97
2018-06-03T08:41:51.217Z,94.59
2018-06-03T08:42:51.127Z,95.64
2018-06-03T08:43:51.035Z,94.97
2018-06-03T08:44:50.945Z,94.78
2018-06-03T08:45:50.853Z,93.91
2018-06-03T08:46:50.764Z,94.49
2018-06-03T08:47:50.672Z,94.59
2018-06-03T08:48:50.569Z,94.10
2018-06-03T08:49:50.479Z,94.29
2018-06-03T08:50:50.391Z,93.87
2018-06-03T08:51:50.296Z,93.87
2018-06-03T08:52:50.205Z,93.29
2018-06-03T08:53:50.114Z,93.67
2018-06-03T08:54:50.023Z,93.29
2018-06-03T08:55:49.934Z,93.48
2018-06-03T08:56:49.842Z,93.29
2018-06-03T08:57:49.759Z,93.48
2018-06-03T08:58:49.659Z,93.96
2018-06-03T08:59:49.572Z,93.96
2018-06-03T09:00:49.478Z,93.81
2018-06-03T09:01:49.376Z,94.29
2018-06-03T09:02:49.285Z,94.24
2018-06-03T09:03:49.193Z,94.15
2018-06-03T09:04:49.103Z,94.34
2018-06-03T09:05:49.011Z,94.15
2018-06-03T09:06:48.956Z,94.15
2018-06-03T09:07:48.831Z,93.52
2018-06-03T09:08:48.739Z,93.76
2018-06-03T09:09:48.649Z,93.52
2018-06-03T09:10:48.558Z,93.14
2018-06-03T09:11:48.466Z,93.52
2018-06-03T09:12:48.376Z,93.52
2018-06-03T09:13:48.286Z,93.52
2018-06-03T09:14:48.195Z,93.48
2018-06-03T09:15:48.103Z,93.66
2018-06-03T09:16:48.014Z,93.04
2018-06-03T09:17:47.935Z,93.04
2018-06-03T09:18:48.134Z,93.52
2018-06-03T09:19:47.740Z,93.14
2018-06-03T09:20:47.639Z,93.24
2018-06-03T09:21:47.546Z,92.76
2018-06-03T09:22:47.468Z,93.04
2018-06-03T09:23:47.368Z,93.04
2018-06-03T09:24:47.273Z,92.85
2018-06-03T09:25:47.183Z,92.94
2018-06-03T09:26:47.091Z,93.48
2018-06-03T09:27:47.001Z,92.85
2018-06-03T09:28:46.910Z,92.56
2018-06-03T09:29:46.853Z,92.27
2018-06-03T09:30:46.728Z,92.18
2018-06-03T09:31:46.637Z,92.66
2018-06-03T09:32:46.546Z,92.13
2018-06-03T09:33:46.459Z,92.13
2018-06-03T09:34:46.365Z,91.75
2018-06-03T09:35:46.275Z,91.75
2018-06-03T09:36:46.183Z,91.46
2018-06-03T09:37:46.094Z,91.84
2018-06-03T09:38:46.003Z,91.94
2018-06-03T09:39:45.913Z,92.52
2018-06-03T09:40:45.819Z,92.80
2018-06-03T09:41:45.718Z,92.52
2018-06-03T09:42:45.627Z,92.52
2018-06-03T09:43:45.785Z,92.37
2018-06-03T09:44:45.448Z,92.56
2018-06-03T09:45:45.353Z,92.66
2018-06-03T09:46:45.264Z,92.76
2018-06-03T09:47:45.172Z,92.56
2018-06-03T09:48:45.081Z,92.47
2018-06-03T09:49:44.991Z,92.94
2018-06-03T09:50:44.901Z,93.28
2018-06-03T09:51:44.809Z,92.80
2018-06-03T09:52:44.718Z,92.71
2018-06-03T09:53:44.626Z,93.09
2018-06-03T09:54:44.536Z,93.09
2018-06-03T09:55:44.446Z,92.90
2018-06-03T09:56:44.355Z,92.99
2018-06-03T09:57:44.263Z,92.90
2018-06-03T09:58:44.173Z,93.09
2018-06-03T09:59:44.082Z,92.99
2018-06-03T10:00:43.980Z,92.94
2018-06-03T10:01:43.889Z,92.27
2018-06-03T10:02:43.810Z,93.13
2018-06-03T10:03:43.957Z,92.08
2018-06-03T10:04:43.616Z,92.46
2018-06-03T10:05:43.525Z,92.41
2018-06-03T10:06:43.447Z,92.50
2018-06-03T10:07:43.344Z,91.93
2018-06-03T10:08:43.252Z,91.93
2018-06-03T10:09:43.162Z,92.32
2018-06-03T10:10:43.070Z,92.12
2018-06-03T10:11:42.980Z,92.12
2018-06-03T10:12:42.889Z,92.02
2018-06-03T10:13:42.810Z,91.54
2018-06-03T10:14:42.707Z,91.44
2018-06-03T10:15:42.618Z,91.93
2018-06-03T10:16:42.526Z,91.40
2018-06-03T10:17:42.436Z,92.08
2018-06-03T10:18:42.344Z,91.60
2018-06-03T10:19:42.254Z,91.26
2018-06-03T10:20:42.163Z,91.69
2018-06-03T10:21:42.073Z,91.50
2018-06-03T10:22:41.983Z,91.64
2018-06-03T10:23:41.892Z,91.06
2018-06-03T10:24:41.801Z,91.74
2018-06-03T10:25:41.735Z,90.97
2018-06-03T10:26:41.631Z,91.26
2018-06-03T10:27:41.528Z,91.06
2018-06-03T10:28:41.438Z,91.74
2018-06-03T10:29:41.358Z,91.83
2018-06-03T10:30:41.270Z,91.06
2018-06-03T10:31:41.176Z,91.64
2018-06-03T10:32:41.074Z,91.30
2018-06-03T10:33:41.000Z,91.30
2018-06-03T10:34:40.905Z,91.11
2018-06-03T10:35:40.802Z,91.40
2018-06-03T10:36:40.723Z,91.40
2018-06-03T10:37:40.631Z,91.20
2018-06-03T10:38:40.541Z,91.83
2018-06-03T10:39:40.449Z,90.96
2018-06-03T10:40:40.348Z,90.67
2018-06-03T10:41:40.268Z,90.58
2018-06-03T10:42:40.178Z,90.91
2018-06-03T10:43:40.086Z,90.23
2018-06-03T10:44:39.996Z,90.47
2018-06-03T10:45:39.905Z,90.23
2018-06-03T10:46:39.815Z,89.01
2018-06-03T10:47:39.723Z,88.57
2018-06-03T10:48:39.633Z,87.65
2018-06-03T10:49:39.541Z,87.27
2018-06-03T10:50:39.451Z,86.69
2018-06-03T10:51:39.361Z,86.88
2018-06-03T10:52:39.270Z,87.36
2018-06-03T10:53:39.178Z,87.07
2018-06-03T10:54:39.089Z,86.78
2018-06-03T10:55:39.039Z,87.46
2018-06-03T10:56:38.906Z,87.55
2018-06-03T10:57:38.827Z,87.27
2018-06-03T10:58:39.036Z,87.75
2018-06-03T10:59:38.646Z,87.71
2018-06-03T11:00:38.554Z,88.15
2018-06-03T11:01:38.465Z,88.87
2018-06-03T11:02:38.373Z,88.78
2018-06-03T11:03:38.283Z,88.87
2018-06-03T11:04:38.205Z,89.31
2018-06-03T11:05:38.157Z,89.47
2018-06-03T11:06:38.025Z,89.27
2018-06-03T11:07:37.931Z,89.47
2018-06-03T11:08:37.842Z,89.47
2018-06-03T11:09:37.763Z,89.47
2018-06-03T11:10:37.660Z,89.90
2018-06-03T11:11:37.585Z,89.71
2018-06-03T11:12:37.494Z,89.47
2018-06-03T11:13:37.400Z,89.75
2018-06-03T11:14:37.308Z,89.65
2018-06-03T11:15:37.221Z,89.27
2018-06-03T11:16:37.145Z,89.12
2018-06-03T11:17:37.037Z,89.03
2018-06-03T11:18:36.945Z,88.29
2018-06-03T11:19:36.855Z,88.34
2018-06-03T11:20:36.765Z,87.99
2018-06-03T11:21:36.689Z,86.65
2018-06-03T11:22:36.596Z,86.45
2018-06-03T11:23:36.758Z,86.45
2018-06-03T11:24:36.416Z,86.59
2018-06-03T11:25:36.322Z,86.45
2018-06-03T11:26:36.237Z,87.23
2018-06-03T11:27:36.196Z,87.47
2018-06-03T11:28:36.052Z,87.76
2018-06-03T11:29:35.976Z,87.95
2018-06-03T11:30:35.881Z,88.59
2018-06-03T11:31:35.791Z,88.15
2018-06-03T11:32:35.700Z,88.15
2018-06-03T11:33:35.610Z,88.15
2018-06-03T11:34:35.518Z,88.39
2018-06-03T11:35:35.428Z,88.10
2018-06-03T11:36:35.351Z,88.29
2018-06-03T11:37:35.258Z,87.62
2018-06-03T11:38:35.168Z,88.87
2018-06-03T11:39:35.076Z,87.52
2018-06-03T11:40:34.987Z,88.68
2018-06-03T11:41:34.894Z,88.59
2018-06-03T11:42:34.805Z,88.10
2018-06-03T11:43:34.716Z,88.20
2018-06-03T11:44:34.634Z,88.20
2018-06-03T11:45:34.544Z,87.66
2018-06-03T11:46:34.452Z,86.99
2018-06-03T11:47:34.363Z,87.03
2018-06-03T11:48:34.271Z,86.74
2018-06-03T11:49:34.183Z,86.59
2018-06-03T11:50:34.090Z,85.91
2018-06-03T11:51:34.063Z,85.04
2018-06-03T11:52:33.923Z,85.04
2018-06-03T11:53:33.829Z,83.73
2018-06-03T11:54:33.739Z,83.92
2018-06-03T11:55:33.652Z,83.67
2018-06-03T11:56:33.558Z,82.60
2018-06-03T11:57:33.480Z,82.32
2018-06-03T11:58:33.388Z,82.90
2018-06-03T11:59:33.298Z,83.15
2018-06-03T12:00:33.206Z,83.78
2018-06-03T12:01:33.117Z,83.30
2018-06-03T12:02:33.038Z,83.69
2018-06-03T12:03:32.999Z,84.56
2018-06-03T12:04:32.857Z,83.88
2018-06-03T12:05:32.765Z,83.78
2018-06-03T12:06:32.675Z,83.15
2018-06-03T12:07:32.584Z,83.25
2018-06-03T12:08:32.505Z,82.60
2018-06-03T12:09:32.414Z,82.70
2018-06-03T12:10:32.338Z,82.86
2018-06-03T12:11:32.234Z,82.95
2018-06-03T12:12:32.156Z,83.40
2018-06-03T12:13:32.073Z,83.59
2018-06-03T12:14:31.967Z,84.90
2018-06-03T12:15:31.937Z,85.97
2018-06-03T12:16:31.792Z,85.73
2018-06-03T12:17:31.714Z,86.41
2018-06-03T12:18:31.626Z,86.21
2018-06-03T12:19:31.531Z,86.27
2018-06-03T12:20:31.440Z,86.31
2018-06-03T12:21:31.350Z,85.83
2018-06-03T12:22:31.272Z,85.53
2018-06-03T12:23:31.181Z,85.73
2018-06-03T12:24:31.096Z,85.29
2018-06-03T12:25:30.998Z,84.77
2018-06-03T12:26:30.909Z,85.48
2018-06-03T12:27:30.830Z,85.33
2018-06-03T12:28:30.760Z,83.98
2018-06-03T12:29:30.648Z,83.88
2018-06-03T12:30:30.557Z,84.27
2018-06-03T12:31:30.466Z,83.88
2018-06-03T12:32:30.388Z,83.59
2018-06-03T12:33:30.296Z,83.49
2018-06-03T12:34:30.206Z,83.30
2018-06-03T12:35:30.127Z,83.20
2018-06-03T12:36:30.025Z,83.11
2018-06-03T12:37:29.935Z,83.69
2018-06-03T12:38:29.855Z,83.30
2018-06-03T12:39:29.765Z,83.20
2018-06-03T12:40:29.674Z,83.59
2018-06-03T12:41:29.584Z,83.78
2018-06-03T12:42:29.493Z,83.34
2018-06-03T12:43:29.414Z,82.57
2018-06-03T12:44:29.324Z,82.22
2018-06-03T12:45:29.232Z,81.73
2018-06-03T12:46:29.147Z,81.73
2018-06-03T12:47:29.052Z,81.73
2018-06-03T12:48:28.973Z,81.93
2018-06-03T12:49:28.882Z,82.18
2018-06-03T12:50:28.790Z,82.57
2018-06-03T12:51:28.700Z,83.20